< < Back
Terminal Aerodrome Forecast


Current Version              Previous Versions:   1  2  3  4  5  6  7  8  9  

Terminal Aerodrome Forecast

382
FTUS42 KGSP 101136
TAFAND
TAF
KAND 101136Z 1012/1112 27012G18KT P6SM FEW040
     FM101600 27016G24KT P6SM FEW050
     FM110000 26008KT P6SM FEW120=



Latest METAR

272
SAUS70 KWBC 110600 RRC
MTRAND
METAR KAND 110556Z AUTO 27009KT 10SM CLR M02/M09 A3012 RMK AO2 SLP205
T10171094 10006 21017 51006


USA.gov is the U.S. government's official web portal to all federal, state and local government web resources and services.